createdAt,value
2019-01-17T00:01:44.208Z,2.60
2019-01-17T00:04:10.544Z,3.50
2019-01-17T00:06:36.880Z,2.70
2019-01-17T00:09:03.212Z,2.97
2019-01-17T00:11:29.547Z,2.97
2019-01-17T00:13:55.879Z,2.97
2019-01-17T00:16:22.208Z,2.60
2019-01-17T00:18:48.541Z,2.47
2019-01-17T00:21:14.866Z,3.00
2019-01-17T00:23:41.191Z,2.97
2019-01-17T00:26:07.524Z,2.57
2019-01-17T00:28:33.913Z,2.57
2019-01-17T00:31:00.285Z,3.10
2019-01-17T00:33:26.612Z,3.10
2019-01-17T00:35:52.943Z,2.77
2019-01-17T00:38:19.280Z,3.50
2019-01-17T00:40:45.679Z,3.30
2019-01-17T00:43:12.019Z,2.93
2019-01-17T00:45:38.431Z,2.70
2019-01-17T00:48:04.849Z,2.93
2019-01-17T00:50:31.184Z,3.03
2019-01-17T00:52:57.513Z,2.93
2019-01-17T00:55:25.288Z,2.80
2019-01-17T00:57:50.239Z,2.90
2019-01-17T01:00:16.571Z,2.97
2019-01-17T01:02:42.900Z,2.97
2019-01-17T01:05:09.240Z,2.73
2019-01-17T01:07:35.619Z,2.80
2019-01-17T01:10:01.943Z,3.30
2019-01-17T01:12:28.271Z,3.10
2019-01-17T01:14:54.651Z,2.80
2019-01-17T01:17:21.000Z,3.10
2019-01-17T01:19:47.381Z,2.70
2019-01-17T01:22:13.776Z,2.63
2019-01-17T01:24:40.116Z,2.33
2019-01-17T01:27:06.454Z,2.70
2019-01-17T01:29:32.839Z,2.87
2019-01-17T01:31:59.168Z,2.23
2019-01-17T01:34:25.533Z,2.60
2019-01-17T01:36:51.903Z,2.37
2019-01-17T01:39:18.230Z,2.17
2019-01-17T01:41:44.612Z,2.60
2019-01-17T01:44:10.998Z,2.07
2019-01-17T01:46:37.325Z,2.17
2019-01-17T01:49:03.682Z,1.90
2019-01-17T01:51:30.062Z,1.90
2019-01-17T01:53:56.389Z,2.13
2019-01-17T01:56:22.798Z,1.90
2019-01-17T01:58:49.128Z,2.33
2019-01-17T02:01:15.459Z,1.80
2019-01-17T02:03:41.816Z,2.10
2019-01-17T02:06:08.149Z,1.90
2019-01-17T02:08:34.481Z,1.80
2019-01-17T02:11:00.865Z,1.40
2019-01-17T02:13:27.194Z,1.70
2019-01-17T02:15:53.616Z,1.67
2019-01-17T02:18:19.946Z,1.77
2019-01-17T02:20:46.277Z,1.60
2019-01-17T02:23:12.661Z,1.83
2019-01-17T02:25:38.988Z,1.80
2019-01-17T02:28:05.327Z,1.67
2019-01-17T02:30:31.671Z,1.70
2019-01-17T02:32:58.013Z,1.43
2019-01-17T02:35:24.396Z,1.50
2019-01-17T02:37:50.795Z,1.77
2019-01-17T02:40:17.127Z,1.43
2019-01-17T02:42:43.475Z,1.30
2019-01-17T02:45:09.868Z,1.60
2019-01-17T02:47:36.194Z,1.80
2019-01-17T02:50:02.529Z,1.50
2019-01-17T02:52:29.038Z,1.40
2019-01-17T02:54:55.364Z,1.40
2019-01-17T02:57:21.736Z,1.40
2019-01-17T02:59:50.417Z,1.40
2019-01-17T03:02:16.789Z,1.33
2019-01-17T03:04:43.130Z,1.40
2019-01-17T03:07:09.477Z,1.30
2019-01-17T03:09:35.815Z,1.73
2019-01-17T03:12:03.874Z,1.30
2019-01-17T03:14:28.489Z,1.40
2019-01-17T03:16:54.828Z,1.60
2019-01-17T03:19:21.151Z,1.60
2019-01-17T03:21:47.498Z,1.50
2019-01-17T03:24:13.837Z,1.60
2019-01-17T03:26:40.195Z,1.63
2019-01-17T03:29:06.506Z,1.40
2019-01-17T03:31:32.843Z,1.57
2019-01-17T03:33:59.223Z,1.40
2019-01-17T03:36:25.617Z,1.47
2019-01-17T03:38:51.948Z,1.47
2019-01-17T03:41:18.323Z,1.50
2019-01-17T03:43:44.674Z,1.63
2019-01-17T03:46:11.005Z,1.37
2019-01-17T03:48:37.389Z,1.60
2019-01-17T03:51:03.736Z,1.40
2019-01-17T03:53:30.107Z,1.40
2019-01-17T03:55:56.468Z,1.40
2019-01-17T03:58:22.879Z,1.63
2019-01-17T04:00:49.229Z,1.40
2019-01-17T04:03:15.668Z,1.40
2019-01-17T04:05:42.078Z,1.33
2019-01-17T04:08:08.512Z,1.30
2019-01-17T04:10:34.932Z,1.30
2019-01-17T04:13:01.226Z,1.40
2019-01-17T04:15:27.612Z,1.30
2019-01-17T04:17:54.055Z,1.40
2019-01-17T04:20:20.414Z,1.53
2019-01-17T04:22:46.753Z,1.27
2019-01-17T04:25:13.096Z,1.23
2019-01-17T04:27:39.441Z,1.40
2019-01-17T04:30:05.848Z,1.30
2019-01-17T04:32:32.178Z,1.73
2019-01-17T04:34:58.576Z,1.70
2019-01-17T04:37:24.839Z,1.70
2019-01-17T04:39:53.183Z,1.50
2019-01-17T04:42:17.766Z,1.43
2019-01-17T04:44:44.099Z,5.50
2019-01-17T04:47:10.471Z,6.40
2019-01-17T04:49:36.845Z,2.63
2019-01-17T04:52:03.338Z,2.67
2019-01-17T04:54:29.665Z,2.30
2019-01-17T04:56:56.058Z,2.43
2019-01-17T04:59:22.405Z,2.30
2019-01-17T05:01:48.750Z,2.20
2019-01-17T05:04:15.074Z,1.90
2019-01-17T05:06:41.436Z,2.80
2019-01-17T05:09:07.996Z,2.10
2019-01-17T05:11:34.324Z,2.67
2019-01-17T05:14:00.630Z,1.70
2019-01-17T05:16:26.956Z,2.00
2019-01-17T05:18:53.362Z,2.30
2019-01-17T05:21:19.684Z,2.30
2019-01-17T05:23:46.050Z,2.63
2019-01-17T05:26:12.538Z,2.00
2019-01-17T05:28:38.955Z,2.00
2019-01-17T05:31:05.301Z,1.80
2019-01-17T05:33:31.678Z,2.10
2019-01-17T05:35:58.045Z,2.17
2019-01-17T05:38:24.601Z,1.93
2019-01-17T05:40:50.947Z,2.07
2019-01-17T05:43:17.272Z,2.03
2019-01-17T05:45:43.617Z,1.83
2019-01-17T05:48:10.125Z,1.87
2019-01-17T05:50:36.486Z,1.60
2019-01-17T05:53:02.807Z,2.10
2019-01-17T05:55:29.192Z,1.80
2019-01-17T05:57:55.515Z,1.70
2019-01-17T06:00:21.825Z,1.70
2019-01-17T06:02:48.232Z,1.80
2019-01-17T06:05:14.578Z,2.00
2019-01-17T06:07:40.969Z,1.87
2019-01-17T06:10:07.328Z,1.97
2019-01-17T06:12:33.658Z,1.83
2019-01-17T06:15:00.010Z,2.07
2019-01-17T06:17:26.376Z,1.70
2019-01-17T06:19:52.703Z,2.07
2019-01-17T06:22:19.097Z,2.37
2019-01-17T06:24:45.426Z,2.63
2019-01-17T06:27:11.817Z,2.20
2019-01-17T06:29:38.146Z,2.90
2019-01-17T06:32:04.477Z,2.80
2019-01-17T06:34:30.856Z,2.40
2019-01-17T06:36:57.218Z,2.60
2019-01-17T06:39:23.634Z,2.67
2019-01-17T06:41:53.203Z,2.37
2019-01-17T06:44:20.486Z,2.33
2019-01-17T06:46:45.957Z,2.57
2019-01-17T06:49:12.247Z,2.80
2019-01-17T06:51:38.653Z,2.80
2019-01-17T06:54:05.018Z,2.87
2019-01-17T06:56:31.444Z,2.77
2019-01-17T06:58:57.778Z,2.33
2019-01-17T07:01:24.255Z,2.70
2019-01-17T07:03:50.595Z,2.70
2019-01-17T07:06:16.932Z,3.80
2019-01-17T07:08:43.270Z,3.40
2019-01-17T07:11:09.677Z,4.30
2019-01-17T07:13:36.020Z,4.37
2019-01-17T07:16:02.392Z,3.40
2019-01-17T07:18:28.681Z,3.30
2019-01-17T07:20:55.093Z,4.20
2019-01-17T07:23:21.463Z,2.77
2019-01-17T07:25:47.826Z,3.30
2019-01-17T07:28:14.226Z,3.20
2019-01-17T07:30:40.547Z,3.53
2019-01-17T07:33:06.989Z,4.17
2019-01-17T07:35:33.329Z,3.17
2019-01-17T07:38:01.640Z,3.40
2019-01-17T07:40:26.053Z,3.60
2019-01-17T07:42:52.456Z,3.97
2019-01-17T07:45:18.896Z,4.23
2019-01-17T07:47:45.330Z,3.47
2019-01-17T07:50:11.684Z,3.53
2019-01-17T07:52:39.902Z,3.50
2019-01-17T07:55:06.560Z,3.50
2019-01-17T07:57:32.926Z,3.83
2019-01-17T07:59:59.261Z,3.90
2019-01-17T08:02:25.793Z,3.60
2019-01-17T08:04:52.133Z,3.50
2019-01-17T08:07:18.557Z,3.53
2019-01-17T08:09:46.128Z,3.70
2019-01-17T08:12:11.264Z,3.30
2019-01-17T08:14:37.620Z,3.23
2019-01-17T08:17:04.083Z,3.33
2019-01-17T08:19:30.619Z,3.07
2019-01-17T08:21:56.958Z,3.47
2019-01-17T08:24:23.651Z,3.63
2019-01-17T08:26:50.022Z,3.60
2019-01-17T08:29:16.337Z,3.07
2019-01-17T08:31:42.660Z,2.90
2019-01-17T08:34:09.018Z,3.17
2019-01-17T08:36:35.430Z,2.90
2019-01-17T08:39:01.761Z,3.63
2019-01-17T08:41:28.303Z,3.70
2019-01-17T08:43:54.645Z,3.30
2019-01-17T08:46:20.974Z,3.20
2019-01-17T08:48:47.330Z,3.40
2019-01-17T08:51:13.658Z,3.87
2019-01-17T08:53:40.043Z,3.67
2019-01-17T08:56:06.395Z,3.13
2019-01-17T08:58:32.744Z,3.30
2019-01-17T09:00:59.173Z,3.43
2019-01-17T09:03:25.508Z,3.53
2019-01-17T09:05:52.018Z,3.40
2019-01-17T09:08:18.351Z,3.60
2019-01-17T09:10:44.692Z,2.90
2019-01-17T09:13:11.138Z,2.90
2019-01-17T09:15:37.524Z,2.40
2019-01-17T09:18:03.957Z,3.03
2019-01-17T09:20:30.408Z,3.50
2019-01-17T09:22:56.722Z,3.40
2019-01-17T09:25:24.157Z,3.37
2019-01-17T09:27:50.518Z,3.20
2019-01-17T09:30:16.851Z,3.10
2019-01-17T09:32:43.208Z,2.80
2019-01-17T09:35:09.693Z,3.03
2019-01-17T09:37:36.156Z,3.00
2019-01-17T09:40:02.581Z,3.20
2019-01-17T09:42:31.085Z,3.10
2019-01-17T09:44:57.506Z,3.13
2019-01-17T09:47:23.966Z,2.87
2019-01-17T09:49:50.447Z,3.57
2019-01-17T09:52:16.905Z,3.20
2019-01-17T09:54:43.300Z,2.80
2019-01-17T09:57:09.625Z,3.10
2019-01-17T09:59:35.962Z,3.90
2019-01-17T10:02:02.317Z,2.57
2019-01-17T10:04:28.644Z,3.30
2019-01-17T10:06:55.016Z,3.20
2019-01-17T10:09:21.536Z,2.63
2019-01-17T10:11:47.950Z,3.60
2019-01-17T10:14:14.270Z,3.20
2019-01-17T10:16:40.643Z,3.50
2019-01-17T10:19:07.060Z,2.80
2019-01-17T10:21:33.394Z,2.50
2019-01-17T10:24:00.021Z,2.40
2019-01-17T10:26:26.353Z,2.90
2019-01-17T10:28:52.766Z,2.50
2019-01-17T10:31:19.180Z,2.97
2019-01-17T10:33:45.525Z,2.70
2019-01-17T10:36:11.963Z,2.97
2019-01-17T10:38:38.312Z,3.30
2019-01-17T10:41:04.656Z,3.57
2019-01-17T10:43:30.985Z,3.43
2019-01-17T10:45:57.329Z,2.83
2019-01-17T10:48:23.763Z,2.40
2019-01-17T10:50:50.098Z,2.47
2019-01-17T10:53:16.426Z,2.70
2019-01-17T10:55:42.763Z,2.30
2019-01-17T10:58:09.118Z,2.37
2019-01-17T11:00:35.551Z,2.47
2019-01-17T11:03:01.851Z,2.92
2019-01-17T11:05:28.253Z,2.17
2019-01-17T11:07:54.589Z,3.03
2019-01-17T11:10:20.941Z,2.20
2019-01-17T11:12:47.302Z,2.30
2019-01-17T11:15:13.689Z,1.93
2019-01-17T11:17:40.170Z,2.33
2019-01-17T11:20:06.531Z,2.33
2019-01-17T11:22:32.976Z,2.40
2019-01-17T11:24:59.311Z,4.33
2019-01-17T11:27:25.694Z,2.07
2019-01-17T11:29:52.005Z,2.00
2019-01-17T11:32:18.353Z,2.13
2019-01-17T11:34:44.834Z,2.07
2019-01-17T11:37:11.151Z,2.00
2019-01-17T11:39:37.518Z,2.30
2019-01-17T11:42:03.884Z,2.50
2019-01-17T11:44:30.212Z,1.90
2019-01-17T11:46:56.544Z,2.03
2019-01-17T11:49:22.930Z,1.90
2019-01-17T11:51:49.351Z,2.60
2019-01-17T11:54:16.077Z,2.03
2019-01-17T11:56:42.417Z,2.00
2019-01-17T11:59:08.785Z,2.23
2019-01-17T12:01:35.295Z,1.60
2019-01-17T12:04:01.675Z,1.83
2019-01-17T12:06:28.153Z,1.97
2019-01-17T12:08:54.835Z,1.87
2019-01-17T12:11:21.258Z,1.47
2019-01-17T12:13:47.611Z,1.90
2019-01-17T12:16:13.998Z,1.60
2019-01-17T12:18:40.406Z,1.63
2019-01-17T12:21:06.770Z,1.57
2019-01-17T12:23:33.112Z,1.93
2019-01-17T12:25:59.509Z,1.90
2019-01-17T12:28:25.912Z,1.90
2019-01-17T12:30:52.258Z,1.60
2019-01-17T12:33:18.603Z,1.60
2019-01-17T12:35:44.945Z,1.50
2019-01-17T12:38:11.355Z,1.50
2019-01-17T12:40:37.882Z,1.80
2019-01-17T12:43:04.639Z,1.40
2019-01-17T12:45:31.011Z,1.50
2019-01-17T12:47:57.358Z,1.40
2019-01-17T12:50:23.746Z,1.80
2019-01-17T12:52:50.076Z,1.60
2019-01-17T12:55:16.426Z,1.40
2019-01-17T12:57:42.830Z,1.90
2019-01-17T13:00:09.264Z,1.70
2019-01-17T13:02:35.686Z,1.60
2019-01-17T13:05:02.063Z,1.33
2019-01-17T13:07:28.438Z,1.60
2019-01-17T13:09:54.756Z,1.90
2019-01-17T13:12:21.128Z,1.57
2019-01-17T13:14:47.479Z,1.80
2019-01-17T13:17:13.982Z,1.97
2019-01-17T13:19:40.984Z,1.73
2019-01-17T13:22:06.704Z,1.67
2019-01-17T13:24:33.038Z,2.00
2019-01-17T13:27:00.846Z,1.70
2019-01-17T13:29:25.743Z,1.50
2019-01-17T13:31:52.074Z,2.13
2019-01-17T13:34:18.485Z,1.70
2019-01-17T13:36:44.875Z,2.10
2019-01-17T13:39:11.190Z,1.93
2019-01-17T13:41:37.596Z,1.70
2019-01-17T13:44:03.907Z,2.07
2019-01-17T13:46:30.255Z,1.77
2019-01-17T13:48:56.688Z,2.10
2019-01-17T13:51:23.027Z,1.77
2019-01-17T13:53:49.379Z,1.90
2019-01-17T13:56:15.776Z,1.80
2019-01-17T13:58:42.113Z,2.00
2019-01-17T14:01:08.517Z,1.57
2019-01-17T14:03:34.846Z,1.83
2019-01-17T14:06:01.286Z,1.90
2019-01-17T14:08:27.630Z,2.20
2019-01-17T14:10:54.136Z,1.80
2019-01-17T14:13:20.415Z,1.70
2019-01-17T14:15:46.760Z,1.97
2019-01-17T14:18:13.103Z,1.80
2019-01-17T14:20:39.435Z,1.93
2019-01-17T14:23:05.931Z,1.80
2019-01-17T14:25:33.326Z,1.93
2019-01-17T14:27:59.648Z,1.60
2019-01-17T14:30:25.994Z,2.03
2019-01-17T14:32:52.490Z,2.20
2019-01-17T14:35:18.887Z,1.70
2019-01-17T14:37:45.258Z,1.80
2019-01-17T14:40:11.594Z,1.70
2019-01-17T14:42:37.950Z,2.33
2019-01-17T14:45:04.309Z,1.73
2019-01-17T14:47:30.676Z,1.87
2019-01-17T14:49:57.131Z,2.00
2019-01-17T14:52:23.415Z,2.20
2019-01-17T14:54:49.810Z,2.47
2019-01-17T14:57:20.652Z,2.40
2019-01-17T14:59:42.633Z,2.47
2019-01-17T15:02:09.077Z,2.00
2019-01-17T15:04:35.429Z,2.50
2019-01-17T15:07:01.776Z,2.27
2019-01-17T15:09:28.164Z,2.33
2019-01-17T15:11:54.543Z,2.60
2019-01-17T15:14:20.894Z,2.40
2019-01-17T15:16:47.332Z,2.37
2019-01-17T15:19:13.765Z,3.03
2019-01-17T15:21:40.101Z,3.07
2019-01-17T15:24:06.451Z,2.37
2019-01-17T15:26:32.781Z,2.37
2019-01-17T15:28:59.219Z,2.70
2019-01-17T15:31:25.743Z,2.53
2019-01-17T15:33:52.078Z,2.40
2019-01-17T15:36:18.430Z,2.70
2019-01-17T15:38:44.764Z,2.83
2019-01-17T15:41:13.744Z,2.33
2019-01-17T15:43:40.087Z,2.83
2019-01-17T15:46:06.414Z,2.83
2019-01-17T15:48:32.751Z,2.50
2019-01-17T15:50:59.082Z,3.60
2019-01-17T15:53:25.477Z,3.07
2019-01-17T15:55:51.882Z,3.30
2019-01-17T15:58:18.232Z,2.97
2019-01-17T16:00:44.634Z,2.77
2019-01-17T16:03:10.996Z,3.53
2019-01-17T16:05:37.427Z,3.30
2019-01-17T16:08:03.832Z,2.90
2019-01-17T16:10:30.201Z,2.73
2019-01-17T16:12:56.533Z,2.73
2019-01-17T16:15:22.932Z,2.53
2019-01-17T16:17:49.285Z,2.70
2019-01-17T16:20:15.610Z,3.50
2019-01-17T16:22:41.969Z,2.60
2019-01-17T16:25:08.351Z,3.00
2019-01-17T16:27:41.501Z,2.87
2019-01-17T16:30:01.146Z,3.00
2019-01-17T16:32:27.486Z,2.80
2019-01-17T16:34:53.818Z,2.47
2019-01-17T16:37:20.311Z,2.80
2019-01-17T16:39:46.641Z,2.70
2019-01-17T16:42:13.074Z,2.57
2019-01-17T16:44:39.426Z,2.67
2019-01-17T16:47:05.775Z,2.90
2019-01-17T16:49:32.265Z,3.60
2019-01-17T16:51:58.575Z,3.57
2019-01-17T16:54:24.926Z,2.93
2019-01-17T16:56:51.256Z,3.37
2019-01-17T16:59:17.581Z,3.47
2019-01-17T17:01:43.960Z,3.13
2019-01-17T17:04:10.340Z,2.80
2019-01-17T17:06:36.731Z,3.00
2019-01-17T17:09:03.088Z,3.30
2019-01-17T17:11:29.515Z,3.33
2019-01-17T17:13:55.877Z,2.50
2019-01-17T17:16:22.368Z,2.50
2019-01-17T17:18:48.707Z,2.47
2019-01-17T17:21:15.043Z,2.40
2019-01-17T17:23:41.429Z,2.57
2019-01-17T17:26:07.825Z,2.70
2019-01-17T17:28:34.147Z,2.83
2019-01-17T17:31:00.510Z,3.00
2019-01-17T17:33:28.825Z,2.80
2019-01-17T17:35:53.226Z,2.57
2019-01-17T17:38:19.554Z,2.57
2019-01-17T17:40:45.888Z,2.60
2019-01-17T17:43:12.234Z,2.47
2019-01-17T17:45:38.577Z,2.30
2019-01-17T17:48:04.949Z,2.40
2019-01-17T17:50:31.367Z,2.70
2019-01-17T17:52:57.791Z,2.23
2019-01-17T17:55:24.121Z,2.43
2019-01-17T17:57:50.728Z,2.80
2019-01-17T18:00:16.814Z,2.57
2019-01-17T18:02:43.152Z,2.80
2019-01-17T18:05:09.516Z,2.17
2019-01-17T18:07:35.907Z,2.47
2019-01-17T18:10:02.287Z,2.80
2019-01-17T18:12:28.659Z,2.70
2019-01-17T18:14:54.968Z,2.93
2019-01-17T18:17:21.331Z,2.70
2019-01-17T18:19:47.669Z,2.90
2019-01-17T18:22:14.094Z,2.73
2019-01-17T18:24:40.385Z,2.90
2019-01-17T18:27:06.729Z,3.10
2019-01-17T18:29:33.050Z,2.40
2019-01-17T18:31:59.378Z,3.10
2019-01-17T18:34:25.797Z,4.37
2019-01-17T18:36:52.128Z,2.77
2019-01-17T18:39:20.659Z,2.73
2019-01-17T18:41:44.838Z,2.70
2019-01-17T18:44:11.254Z,2.60
2019-01-17T18:46:37.573Z,3.50
2019-01-17T18:49:03.926Z,2.73
2019-01-17T18:51:30.279Z,3.00
2019-01-17T18:53:56.620Z,3.03
2019-01-17T18:56:23.011Z,2.90
2019-01-17T18:58:49.332Z,2.67
2019-01-17T19:01:15.740Z,3.70
2019-01-17T19:03:42.072Z,3.17
2019-01-17T19:06:08.402Z,3.20
2019-01-17T19:08:34.885Z,2.73
2019-01-17T19:11:01.235Z,3.30
2019-01-17T19:13:27.578Z,2.80
2019-01-17T19:15:53.942Z,3.17
2019-01-17T19:18:20.321Z,3.20
2019-01-17T19:20:46.667Z,3.07
2019-01-17T19:23:13.051Z,3.50
2019-01-17T19:25:39.469Z,3.10
2019-01-17T19:28:05.761Z,3.00
2019-01-17T19:30:32.163Z,3.37
2019-01-17T19:32:58.597Z,3.60
2019-01-17T19:35:25.035Z,3.40
2019-01-17T19:37:51.394Z,2.93
2019-01-17T19:40:17.817Z,3.00
2019-01-17T19:42:44.373Z,2.57
2019-01-17T19:45:10.684Z,2.77
2019-01-17T19:47:37.095Z,3.03
2019-01-17T19:50:03.542Z,3.30
2019-01-17T19:52:29.891Z,3.50
2019-01-17T19:54:56.223Z,2.70
2019-01-17T19:57:22.739Z,3.47
2019-01-17T19:59:49.191Z,3.30
2019-01-17T20:02:15.558Z,3.40
2019-01-17T20:04:42.001Z,3.70
2019-01-17T20:07:08.608Z,3.13
2019-01-17T20:09:34.912Z,3.27
2019-01-17T20:12:01.323Z,2.83
2019-01-17T20:14:27.621Z,3.23
2019-01-17T20:16:54.092Z,3.03
2019-01-17T20:19:20.410Z,3.00
2019-01-17T20:21:46.803Z,3.17
2019-01-17T20:24:13.803Z,3.77
2019-01-17T20:26:40.196Z,2.93
2019-01-17T20:29:06.581Z,3.40
2019-01-17T20:31:33.230Z,3.50
2019-01-17T20:33:59.731Z,2.87
2019-01-17T20:36:26.202Z,3.30
2019-01-17T20:38:52.608Z,3.10
2019-01-17T20:41:19.073Z,2.87
2019-01-17T20:43:45.433Z,2.87
2019-01-17T20:46:11.911Z,2.70
2019-01-17T20:48:38.298Z,3.50
2019-01-17T20:51:04.635Z,2.90
2019-01-17T20:53:31.119Z,2.90
2019-01-17T20:55:57.450Z,3.60
2019-01-17T20:58:23.793Z,3.50
2019-01-17T21:00:50.130Z,3.23
2019-01-17T21:03:16.517Z,2.97
2019-01-17T21:05:42.852Z,3.53
2019-01-17T21:08:09.183Z,3.03
2019-01-17T21:10:35.561Z,3.80
2019-01-17T21:13:01.955Z,3.00
2019-01-17T21:15:28.465Z,3.30
2019-01-17T21:17:54.792Z,3.20
2019-01-17T21:20:21.185Z,3.33
2019-01-17T21:22:47.544Z,3.20
2019-01-17T21:25:13.958Z,3.30
2019-01-17T21:27:40.278Z,3.23
2019-01-17T21:30:06.608Z,3.80
2019-01-17T21:32:32.967Z,3.00
2019-01-17T21:34:59.341Z,3.30
2019-01-17T21:37:25.689Z,3.77
2019-01-17T21:39:52.094Z,3.80
2019-01-17T21:42:18.430Z,3.70
2019-01-17T21:44:44.809Z,3.70
2019-01-17T21:47:11.122Z,3.33
2019-01-17T21:49:37.486Z,3.80
2019-01-17T21:52:03.808Z,2.90
2019-01-17T21:54:30.145Z,3.60
2019-01-17T21:56:56.547Z,3.47
2019-01-17T21:59:22.905Z,3.20
2019-01-17T22:01:49.281Z,3.23
2019-01-17T22:04:15.686Z,3.80
2019-01-17T22:06:42.034Z,3.40
2019-01-17T22:09:08.374Z,3.27
2019-01-17T22:11:34.705Z,3.37
2019-01-17T22:14:01.118Z,3.30
2019-01-17T22:16:27.423Z,2.67
2019-01-17T22:18:53.759Z,3.27
2019-01-17T22:21:20.162Z,3.57
2019-01-17T22:23:46.540Z,2.97
2019-01-17T22:26:12.867Z,3.23
2019-01-17T22:28:39.204Z,3.10
2019-01-17T22:31:05.534Z,3.43
2019-01-17T22:33:31.940Z,3.00
2019-01-17T22:35:58.289Z,3.10
2019-01-17T22:38:24.643Z,2.90
2019-01-17T22:40:50.979Z,3.03
2019-01-17T22:43:17.386Z,2.73
2019-01-17T22:45:43.715Z,3.20
2019-01-17T22:48:10.153Z,3.00
2019-01-17T22:50:36.542Z,2.60
2019-01-17T22:53:02.894Z,2.80
2019-01-17T22:55:29.307Z,3.47
2019-01-17T22:57:55.601Z,3.20
2019-01-17T23:00:21.939Z,3.00
2019-01-17T23:02:48.261Z,2.97
2019-01-17T23:05:14.594Z,2.80
2019-01-17T23:07:41.003Z,3.30
2019-01-17T23:10:07.335Z,3.27
2019-01-17T23:12:33.665Z,3.00
2019-01-17T23:14:59.995Z,2.70
2019-01-17T23:17:26.411Z,3.23
2019-01-17T23:19:52.763Z,3.07
2019-01-17T23:22:19.089Z,3.00
2019-01-17T23:24:45.444Z,2.80
2019-01-17T23:27:11.775Z,3.17
2019-01-17T23:29:38.167Z,3.10
2019-01-17T23:32:04.496Z,2.60
2019-01-17T23:34:30.909Z,2.80
2019-01-17T23:36:57.282Z,2.90
2019-01-17T23:39:23.694Z,2.77
2019-01-17T23:41:50.158Z,2.80
2019-01-17T23:44:16.483Z,2.97
2019-01-17T23:46:42.838Z,3.03
2019-01-17T23:49:09.164Z,2.73
2019-01-17T23:51:35.545Z,2.97
2019-01-17T23:54:01.895Z,3.17
2019-01-17T23:56:28.314Z,3.17
2019-01-17T23:58:54.673Z,2.87
